Time;durP1;ratioP1;P1;durP2;ratioP2;P2;SDS_P1;SDS_P2;PMS_P1;PMS_P2;Temp;Humidity;BMP_temperature;BMP_pressure;BME280_temperature;BME280_humidity;BME280_pressure;Samples;Min_cycle;Max_cycle;Signal;HPM_P1;HPM_P2
2023/07/12 00:01:15;;;;;;;6.60;1.70;;;20.70;99.90;;;;;;5026536;28;20131;-80
2023/07/12 00:03:40;;;;;;;4.97;1.80;;;20.70;99.90;;;;;;5026070;28;20040;-81
2023/07/12 00:06:15;;;;;;;2.78;1.65;;;20.70;99.90;;;;;;5015000;28;20033;-81
2023/07/12 00:08:41;;;;;;;4.20;1.70;;;20.70;99.90;;;;;;5027948;28;20049;-81
2023/07/12 00:11:14;;;;;;;3.38;1.50;;;20.70;99.90;;;;;;5012705;28;20119;-81
2023/07/12 00:13:41;;;;;;;3.60;1.38;;;20.70;99.90;;;;;;5029394;28;20071;-81
2023/07/12 00:16:27;;;;;;;5.10;1.58;;;20.70;99.90;;;;;;5010494;28;20025;-82
2023/07/12 00:18:54;;;;;;;4.53;1.52;;;20.80;99.90;;;;;;5028545;28;20028;-83
2023/07/12 00:21:22;;;;;;;6.00;1.92;;;20.80;99.90;;;;;;5028192;28;20105;-81
2023/07/12 00:24:06;;;;;;;2.60;1.58;;;20.80;99.90;;;;;;5026853;28;20101;-83
2023/07/12 00:26:34;;;;;;;3.53;1.20;;;20.80;99.90;;;;;;5026564;28;20030;-81
2023/07/12 00:29:02;;;;;;;5.60;1.90;;;20.80;99.90;;;;;;5010059;28;20037;-82
2023/07/12 00:31:28;;;;;;;4.22;1.65;;;20.80;99.90;;;;;;5015383;28;20025;-82
2023/07/12 00:33:54;;;;;;;2.88;1.50;;;20.80;99.90;;;;;;5029200;28;20048;-82
2023/07/12 00:36:22;;;;;;;4.40;1.60;;;20.80;99.90;;;;;;5026194;28;20021;-83
2023/07/12 00:38:48;;;;;;;7.30;1.80;;;20.80;99.90;;;;;;5031323;28;20030;-83
2023/07/12 00:41:25;;;;;;;2.60;1.70;;;20.80;99.90;;;;;;5013670;28;20021;-82
2023/07/12 00:43:54;;;;;;;3.75;1.75;;;20.80;99.90;;;;;;5044647;23;20400;-75
2023/07/12 00:46:51;;;;;;;4.63;2.00;;;20.70;99.90;;;;;;5019158;28;20026;-75
2023/07/12 00:49:17;;;;;;;4.38;2.30;;;20.80;99.90;;;;;;5005999;28;20084;-75
2023/07/12 00:51:52;;;;;;;8.00;2.38;;;20.70;99.90;;;;;;5010723;28;20030;-76
2023/07/12 00:54:20;;;;;;;4.72;2.10;;;20.80;99.90;;;;;;5009211;28;20030;-76
2023/07/12 00:56:46;;;;;;;5.93;2.17;;;20.80;99.90;;;;;;5004081;28;20049;-75
2023/07/12 00:59:26;;;;;;;5.18;2.25;;;20.80;99.90;;;;;;5016652;28;20029;-75
2023/07/12 01:01:57;;;;;;;7.32;2.40;;;20.70;99.90;;;;;;5015325;28;20447;-75
2023/07/12 01:04:28;;;;;;;10.02;2.63;;;20.80;99.90;;;;;;5017138;28;20499;-75
2023/07/12 01:06:54;;;;;;;6.80;2.58;;;20.70;99.90;;;;;;5016722;28;20026;-76
2023/07/12 01:09:21;;;;;;;5.18;2.35;;;20.80;99.90;;;;;;5019830;28;20224;-76
2023/07/12 01:11:47;;;;;;;5.95;2.35;;;20.80;99.90;;;;;;5015030;28;20029;-76
2023/07/12 01:17:34;;;;;;;4.72;2.28;;;20.80;99.90;;;;;;5018590;28;20376;-75
2023/07/12 01:20:00;;;;;;;4.70;1.90;;;20.80;99.90;;;;;;5017123;28;20030;-75
2023/07/12 01:22:26;;;;;;;4.65;2.33;;;20.80;99.90;;;;;;5016564;28;20400;-75
2023/07/12 01:24:51;;;;;;;6.82;2.35;;;20.70;99.90;;;;;;5014995;28;20125;-74
2023/07/12 01:27:24;;;;;;;4.80;2.10;;;20.70;99.90;;;;;;5015041;28;20065;-74
2023/07/12 01:29:50;;;;;;;5.78;2.63;;;20.70;99.90;;;;;;5014582;28;20037;-75
2023/07/12 01:32:17;;;;;;;6.70;2.90;;;20.70;99.90;;;;;;5015737;28;20564;-75
2023/07/12 01:34:43;;;;;;;6.50;2.40;;;20.70;99.90;;;;;;5014536;28;20396;-75
2023/07/12 01:37:08;;;;;;;5.55;2.30;;;20.70;99.90;;;;;;5007521;28;20042;-74
2023/07/12 01:39:34;;;;;;;5.53;2.20;;;20.70;99.90;;;;;;5016162;28;20049;-74
2023/07/12 01:42:00;;;;;;;5.25;2.35;;;20.70;99.90;;;;;;5016340;28;20097;-74
2023/07/12 01:44:25;;;;;;;5.70;2.30;;;20.70;99.90;;;;;;5015774;28;20106;-74
2023/07/12 01:46:51;;;;;;;5.07;2.47;;;20.70;99.90;;;;;;5015622;28;20404;-74
2023/07/12 01:49:17;;;;;;;3.28;2.15;;;20.70;99.90;;;;;;5015627;28;20022;-75
2023/07/12 01:51:43;;;;;;;3.58;1.98;;;20.70;99.90;;;;;;5024182;28;20061;-74
2023/07/12 01:54:08;;;;;;;7.72;2.60;;;20.70;99.90;;;;;;5026378;28;20469;-74
2023/07/12 01:56:34;;;;;;;9.73;2.35;;;20.70;99.90;;;;;;5015975;28;20029;-74
2023/07/12 01:58:59;;;;;;;4.28;2.40;;;20.70;99.90;;;;;;5015600;28;20507;-74
2023/07/12 02:01:25;;;;;;;5.00;2.17;;;20.80;99.90;;;;;;5015810;28;20068;-74
2023/07/12 02:03:50;;;;;;;4.43;2.17;;;20.70;99.90;;;;;;5015504;28;20053;-75
2023/07/12 02:06:16;;;;;;;4.72;2.40;;;20.80;99.90;;;;;;5015337;28;20112;-75
2023/07/12 02:08:42;;;;;;;5.00;1.95;;;20.80;99.90;;;;;;5014867;28;20022;-75
2023/07/12 02:11:08;;;;;;;5.13;2.00;;;20.80;99.90;;;;;;5015389;28;20104;-75
2023/07/12 02:13:33;;;;;;;6.18;2.47;;;20.80;99.90;;;;;;5015253;28;20164;-75
2023/07/12 02:15:59;;;;;;;5.50;2.70;;;20.80;99.90;;;;;;5014963;28;20026;-76
2023/07/12 02:18:24;;;;;;;6.63;2.53;;;20.80;99.90;;;;;;5005865;28;20021;-75
2023/07/12 02:20:51;;;;;;;5.82;1.90;;;20.80;99.90;;;;;;5015734;28;20392;-75
2023/07/12 02:23:16;;;;;;;3.60;1.60;;;20.80;99.90;;;;;;5014180;28;20036;-75
2023/07/12 02:25:42;;;;;;;8.23;2.85;;;20.80;99.90;;;;;;5014023;28;20026;-75
2023/07/12 02:28:07;;;;;;;9.63;3.17;;;20.80;99.90;;;;;;5015115;28;20101;-75
2023/07/12 02:30:33;;;;;;;5.65;2.22;;;20.70;99.90;;;;;;5014995;28;20034;-75
2023/07/12 02:32:59;;;;;;;4.85;2.10;;;20.70;99.90;;;;;;5013802;28;20030;-75
2023/07/12 02:35:28;;;;;;;4.38;2.17;;;20.70;99.90;;;;;;5015806;28;20087;-76
2023/07/12 02:37:55;;;;;;;5.05;2.88;;;20.70;99.90;;;;;;5013994;28;20033;-76
2023/07/12 02:40:23;;;;;;;4.38;2.00;;;20.60;99.90;;;;;;5016727;28;20048;-76
2023/07/12 02:42:49;;;;;;;7.72;2.47;;;20.70;99.90;;;;;;5011552;28;20038;-76
2023/07/12 02:45:15;;;;;;;6.40;2.55;;;20.60;99.90;;;;;;5004180;28;20069;-75
2023/07/12 02:47:40;;;;;;;4.30;2.30;;;20.60;99.90;;;;;;5004321;28;20023;-76
2023/07/12 02:50:06;;;;;;;5.72;2.22;;;20.70;99.90;;;;;;5014478;28;20056;-76
2023/07/12 02:52:34;;;;;;;5.28;1.95;;;20.60;99.90;;;;;;5013081;28;20115;-75
2023/07/12 02:55:00;;;;;;;6.18;2.63;;;20.60;99.90;;;;;;5013276;28;20026;-75
2023/07/12 02:57:26;;;;;;;7.72;2.55;;;20.60;99.90;;;;;;5014651;28;20091;-75
2023/07/12 02:59:51;;;;;;;5.90;2.67;;;20.70;99.90;;;;;;5013100;28;20076;-75
2023/07/12 03:02:18;;;;;;;5.32;2.40;;;20.60;99.90;;;;;;5014383;28;20160;-75
2023/07/12 03:04:44;;;;;;;7.20;3.00;;;20.60;99.90;;;;;;5014485;28;20033;-75
2023/07/12 03:07:10;;;;;;;3.38;2.08;;;20.70;99.90;;;;;;5014376;28;20042;-75
2023/07/12 03:09:35;;;;;;;5.63;2.47;;;20.60;99.90;;;;;;5007906;28;20053;-75
2023/07/12 03:12:01;;;;;;;5.57;2.05;;;20.70;99.90;;;;;;4994770;28;20030;-75
2023/07/12 03:14:27;;;;;;;6.20;2.28;;;20.70;99.90;;;;;;4994878;28;20022;-75
2023/07/12 03:16:52;;;;;;;4.03;1.95;;;20.70;99.90;;;;;;4994891;28;20073;-74
2023/07/12 03:19:18;;;;;;;3.63;2.13;;;20.70;99.90;;;;;;4991787;28;20385;-74
2023/07/12 03:21:46;;;;;;;4.25;2.22;;;20.70;99.90;;;;;;4994701;28;20109;-74
2023/07/12 03:24:11;;;;;;;8.30;2.58;;;20.80;99.90;;;;;;4994630;28;20022;-75
2023/07/12 03:26:37;;;;;;;7.30;2.00;;;20.70;99.90;;;;;;5011937;28;20107;-75
2023/07/12 03:29:04;;;;;;;4.28;2.33;;;20.80;99.90;;;;;;5016284;28;20030;-75
2023/07/12 03:31:30;;;;;;;7.95;2.53;;;20.80;99.90;;;;;;5026065;28;20536;-76
2023/07/12 03:33:56;;;;;;;5.65;2.55;;;20.80;99.90;;;;;;5013550;28;20029;-77
2023/07/12 03:36:25;;;;;;;6.65;2.58;;;20.80;99.90;;;;;;5019875;28;20018;-77
2023/07/12 03:38:51;;;;;;;8.23;2.75;;;20.80;99.90;;;;;;5001948;28;20536;-77
2023/07/12 03:41:20;;;;;;;9.07;2.67;;;20.80;99.90;;;;;;5014020;28;20396;-77
2023/07/12 03:43:46;;;;;;;7.60;3.28;;;20.80;99.90;;;;;;5003493;28;20026;-75
2023/07/12 03:46:12;;;;;;;8.10;2.53;;;20.80;99.90;;;;;;5013409;28;20022;-75
2023/07/12 03:48:37;;;;;;;6.20;2.85;;;20.80;99.90;;;;;;5013490;28;20033;-75
2023/07/12 03:51:03;;;;;;;6.85;2.90;;;20.80;99.90;;;;;;5014767;28;20175;-76
2023/07/12 03:53:28;;;;;;;3.45;2.40;;;20.90;99.90;;;;;;5032283;28;20384;-76
2023/07/12 03:55:58;;;;;;;9.30;3.28;;;20.80;99.90;;;;;;5000740;28;20045;-75
2023/07/12 03:58:28;;;;;;;6.55;2.65;;;20.90;99.90;;;;;;5007931;28;20025;-76
2023/07/12 04:00:54;;;;;;;7.30;3.10;;;20.80;99.90;;;;;;5009711;28;20022;-76
2023/07/12 04:03:20;;;;;;;7.93;3.30;;;20.90;99.90;;;;;;5021075;28;20099;-75
2023/07/12 04:05:50;;;;;;;6.55;2.65;;;20.90;99.90;;;;;;5032035;28;20565;-75
2023/07/12 04:08:16;;;;;;;4.50;2.28;;;20.90;99.90;;;;;;5016208;28;20022;-76
2023/07/12 04:10:42;;;;;;;4.38;2.38;;;20.90;99.90;;;;;;4994132;28;20034;-75
2023/07/12 04:13:08;;;;;;;7.22;3.15;;;20.90;99.90;;;;;;4993416;28;20480;-75
2023/07/12 04:15:35;;;;;;;8.32;3.28;;;20.80;99.90;;;;;;5000594;28;20412;-76
2023/07/12 04:18:02;;;;;;;7.28;2.50;;;20.80;99.90;;;;;;5005263;28;20045;-76
2023/07/12 04:20:27;;;;;;;6.03;2.47;;;20.80;99.90;;;;;;5009675;28;20026;-76
2023/07/12 04:22:53;;;;;;;6.70;2.60;;;20.80;99.90;;;;;;5006846;28;20113;-76
2023/07/12 04:25:20;;;;;;;6.05;2.60;;;20.80;99.90;;;;;;5011416;28;20029;-75
2023/07/12 04:27:45;;;;;;;5.53;3.10;;;20.90;99.90;;;;;;5013112;28;20440;-75
2023/07/12 04:30:13;;;;;;;4.10;2.88;;;20.90;99.90;;;;;;5012845;28;20026;-75
2023/07/12 04:32:39;;;;;;;5.38;2.85;;;20.90;99.90;;;;;;5012754;28;20030;-75
2023/07/12 04:35:04;;;;;;;5.50;2.58;;;20.90;99.90;;;;;;5012792;28;20030;-75
2023/07/12 04:37:30;;;;;;;6.55;2.35;;;21.00;99.90;;;;;;5012824;28;20026;-75
2023/07/12 04:39:56;;;;;;;7.95;2.78;;;21.00;99.90;;;;;;5013033;28;20026;-75
2023/07/12 04:42:22;;;;;;;7.18;3.20;;;21.00;99.90;;;;;;5012856;28;20026;-75
2023/07/12 04:44:47;;;;;;;7.85;3.47;;;21.00;99.90;;;;;;5012807;28;20033;-75
2023/07/12 04:47:17;;;;;;;8.82;4.20;;;21.00;99.90;;;;;;5012458;28;20500;-75
2023/07/12 04:49:44;;;;;;;7.13;3.20;;;21.00;99.90;;;;;;5011286;28;20025;-75
2023/07/12 04:52:11;;;;;;;7.70;2.80;;;21.00;99.90;;;;;;5012497;28;20101;-75
2023/07/12 04:54:40;;;;;;;5.32;2.88;;;21.10;99.90;;;;;;5012917;28;20028;-75
2023/07/12 04:57:06;;;;;;;6.50;2.70;;;21.00;99.90;;;;;;5010873;28;20030;-75
2023/07/12 04:59:32;;;;;;;8.18;2.85;;;21.10;99.90;;;;;;5012802;28;20479;-75
2023/07/12 05:01:58;;;;;;;6.85;3.65;;;21.10;99.90;;;;;;5012354;28;20030;-75
2023/07/12 05:04:23;;;;;;;5.85;2.97;;;21.10;99.90;;;;;;5011285;28;20452;-74
2023/07/12 05:06:51;;;;;;;11.73;4.70;;;21.00;99.90;;;;;;5012356;28;20060;-73
2023/07/12 05:09:17;;;;;;;5.60;3.33;;;21.10;99.90;;;;;;5013037;28;20396;-74
2023/07/12 05:11:43;;;;;;;8.23;3.50;;;21.10;99.90;;;;;;5032435;28;20025;-74
2023/07/12 05:14:09;;;;;;;8.68;2.70;;;21.10;99.90;;;;;;5032329;28;20495;-74
2023/07/12 05:16:34;;;;;;;6.95;2.85;;;21.10;99.90;;;;;;5032827;28;20021;-75
2023/07/12 05:19:00;;;;;;;9.13;3.55;;;21.10;99.90;;;;;;5031101;28;20033;-73
2023/07/12 05:21:26;;;;;;;6.50;2.58;;;21.00;99.90;;;;;;5013179;28;20033;-74
2023/07/12 05:23:51;;;;;;;5.95;3.40;;;21.00;99.90;;;;;;5016266;28;20021;-74
2023/07/12 05:26:17;;;;;;;9.07;3.63;;;21.00;99.90;;;;;;5008634;28;20030;-75
2023/07/12 05:28:42;;;;;;;7.05;3.22;;;21.00;99.90;;;;;;5010885;28;20034;-75
2023/07/12 05:31:10;;;;;;;8.65;2.85;;;21.00;99.90;;;;;;5011267;28;20037;-74
2023/07/12 05:33:36;;;;;;;8.23;3.30;;;21.00;99.90;;;;;;5012532;28;20026;-74
2023/07/12 05:36:03;;;;;;;9.55;3.17;;;21.00;99.90;;;;;;5011641;28;20066;-70
2023/07/12 05:38:29;;;;;;;9.52;3.45;;;21.00;99.90;;;;;;5009099;28;20956;-71
2023/07/12 05:41:01;;;;;;;6.10;2.70;;;21.00;99.90;;;;;;5004194;28;20393;-71
2023/07/12 05:43:28;;;;;;;8.02;3.00;;;21.00;99.90;;;;;;5003685;28;20463;-70
2023/07/12 05:45:56;;;;;;;11.38;3.25;;;21.00;99.90;;;;;;5006305;28;20511;-70
2023/07/12 05:48:22;;;;;;;7.50;3.35;;;21.00;99.90;;;;;;4999534;28;20030;-70
2023/07/12 05:50:58;;;;;;;8.35;3.05;;;21.00;99.90;;;;;;5008833;28;20512;-70
2023/07/12 05:53:24;;;;;;;8.40;3.30;;;21.10;99.90;;;;;;5011235;28;20018;-70
2023/07/12 05:55:58;;;;;;;9.88;3.45;;;21.10;99.90;;;;;;5012531;28;20148;-71
2023/07/12 05:58:24;;;;;;;9.65;3.22;;;21.20;99.90;;;;;;5010344;28;20029;-71
2023/07/12 06:00:55;;;;;;;7.55;3.38;;;21.30;99.90;;;;;;5010602;28;20049;-71
2023/07/12 06:03:20;;;;;;;7.28;3.38;;;21.30;99.90;;;;;;5011595;28;20411;-71
2023/07/12 06:05:46;;;;;;;9.18;3.08;;;21.30;99.90;;;;;;5009725;28;20033;-71
2023/07/12 06:08:12;;;;;;;7.95;2.97;;;21.30;99.90;;;;;;5004042;28;20476;-70
2023/07/12 06:10:38;;;;;;;10.52;3.67;;;21.40;99.90;;;;;;5008989;28;20507;-74
2023/07/12 06:13:03;;;;;;;8.48;3.10;;;21.40;99.90;;;;;;5016166;28;20540;-74
2023/07/12 06:15:29;;;;;;;8.80;3.75;;;21.50;99.90;;;;;;5015011;28;20411;-74
2023/07/12 06:17:55;;;;;;;12.77;3.45;;;21.50;99.90;;;;;;5025656;28;20108;-74
2023/07/12 06:20:20;;;;;;;7.78;3.55;;;21.50;99.90;;;;;;5016331;28;20026;-74
2023/07/12 06:22:46;;;;;;;7.50;3.65;;;21.70;99.90;;;;;;5014552;28;20030;-74
2023/07/12 06:25:12;;;;;;;11.85;3.88;;;21.70;99.90;;;;;;5014379;28;20033;-74
2023/07/12 06:27:37;;;;;;;8.52;4.15;;;21.80;99.90;;;;;;5013894;28;20026;-74
2023/07/12 06:30:03;;;;;;;8.00;3.53;;;21.90;99.90;;;;;;5011862;28;20034;-74
2023/07/12 06:32:29;;;;;;;6.00;3.97;;;22.00;99.90;;;;;;5006746;28;20027;-74
2023/07/12 06:34:54;;;;;;;7.57;3.72;;;22.00;99.90;;;;;;5015781;28;20018;-73
2023/07/12 06:37:20;;;;;;;5.45;4.03;;;22.10;99.90;;;;;;5015118;28;20061;-73
2023/07/12 06:39:46;;;;;;;8.18;3.72;;;22.20;99.90;;;;;;5014695;28;20354;-73
2023/07/12 06:42:12;;;;;;;9.70;3.67;;;22.30;99.90;;;;;;5015831;28;20053;-74
2023/07/12 06:44:37;;;;;;;8.93;4.15;;;22.40;99.90;;;;;;5010449;28;20022;-74
2023/07/12 06:47:03;;;;;;;9.05;4.40;;;22.40;99.90;;;;;;5009716;28;20014;-74
2023/07/12 06:49:29;;;;;;;8.18;3.30;;;22.50;99.90;;;;;;5012086;28;20018;-74
2023/07/12 06:51:57;;;;;;;9.52;4.10;;;22.60;99.90;;;;;;5013843;28;20069;-74
2023/07/12 06:54:23;;;;;;;8.45;4.22;;;22.60;99.90;;;;;;5015237;28;20061;-77
2023/07/12 06:56:49;;;;;;;10.80;4.43;;;22.80;99.90;;;;;;5035518;23;20038;-75
2023/07/12 06:59:14;;;;;;;9.13;3.83;;;22.90;99.90;;;;;;5020441;28;20064;-75
2023/07/12 07:01:40;;;;;;;11.75;4.68;;;23.00;99.90;;;;;;5020512;28;20032;-75
2023/07/12 07:04:06;;;;;;;10.88;4.35;;;23.10;99.90;;;;;;5024930;28;20033;-74
2023/07/12 07:06:31;;;;;;;7.63;4.07;;;23.20;99.90;;;;;;5028326;28;20025;-73
2023/07/12 07:08:57;;;;;;;12.48;4.82;;;23.30;99.90;;;;;;5028805;28;20037;-73
2023/07/12 07:11:23;;;;;;;9.30;4.25;;;23.40;99.90;;;;;;5027779;28;20033;-73
2023/07/12 07:13:50;;;;;;;11.07;4.18;;;23.50;99.90;;;;;;5029437;28;20380;-74
2023/07/12 07:16:16;;;;;;;7.20;3.92;;;23.60;99.90;;;;;;5028653;28;20026;-74
2023/07/12 07:18:42;;;;;;;8.25;4.57;;;23.60;99.90;;;;;;5029128;28;20049;-74
2023/07/12 07:21:08;;;;;;;9.38;4.93;;;23.70;99.90;;;;;;5024622;28;20494;-74
2023/07/12 07:23:34;;;;;;;9.93;4.40;;;23.80;99.90;;;;;;5029207;28;20034;-74
2023/07/12 07:26:04;;;;;;;8.77;5.05;;;23.90;99.90;;;;;;5025783;28;20116;-74
2023/07/12 07:28:30;;;;;;;7.97;4.45;;;23.90;99.90;;;;;;5025312;28;20154;-74
2023/07/12 07:30:56;;;;;;;10.57;4.78;;;23.90;99.90;;;;;;5025274;28;20491;-74
2023/07/12 07:33:22;;;;;;;8.65;4.60;;;24.00;99.90;;;;;;5024007;28;20431;-74
2023/07/12 07:35:48;;;;;;;9.27;4.80;;;24.00;99.90;;;;;;5026415;28;20022;-75
2023/07/12 07:38:13;;;;;;;9.23;4.90;;;24.10;99.90;;;;;;5028219;28;20026;-75
2023/07/12 07:40:43;;;;;;;9.63;4.53;;;24.10;99.90;;;;;;5023932;28;20052;-75
2023/07/12 07:43:13;;;;;;;7.95;5.05;;;24.20;99.90;;;;;;5029365;28;20017;-75
2023/07/12 07:45:40;;;;;;;7.53;4.45;;;24.30;99.90;;;;;;5024230;28;20044;-75
2023/07/12 07:48:06;;;;;;;11.57;4.93;;;24.40;99.90;;;;;;5024947;28;20037;-75
2023/07/12 07:50:31;;;;;;;8.77;4.40;;;24.50;99.90;;;;;;5026564;28;20104;-75
2023/07/12 07:52:57;;;;;;;7.03;4.45;;;24.50;99.90;;;;;;5028006;28;20037;-75
2023/07/12 07:55:22;;;;;;;7.68;4.50;;;24.60;99.90;;;;;;5025835;28;20053;-75
2023/07/12 07:57:48;;;;;;;7.68;4.95;;;24.60;99.90;;;;;;5023286;28;20045;-74
2023/07/12 08:00:15;;;;;;;7.65;4.70;;;24.70;99.90;;;;;;5028016;28;20078;-75
2023/07/12 08:02:42;;;;;;;8.55;4.53;;;24.80;99.90;;;;;;5024079;28;20144;-75
2023/07/12 08:05:11;;;;;;;7.00;4.30;;;24.80;99.90;;;;;;5027370;28;20037;-74
2023/07/12 08:07:42;;;;;;;9.20;4.40;;;24.90;99.90;;;;;;5025557;28;20025;-75
2023/07/12 08:10:10;;;;;;;6.15;4.07;;;24.90;99.90;;;;;;5031983;28;20025;-75
2023/07/12 08:12:36;;;;;;;11.25;4.05;;;24.90;99.90;;;;;;5025982;28;20056;-75
2023/07/12 08:15:01;;;;;;;8.68;3.90;;;25.00;99.90;;;;;;5025795;28;20021;-75
2023/07/12 08:17:27;;;;;;;9.95;4.10;;;25.00;99.90;;;;;;5028463;28;20058;-74
2023/07/12 08:19:53;;;;;;;7.90;4.55;;;25.00;99.90;;;;;;5026839;28;20049;-74
2023/07/12 08:22:22;;;;;;;6.28;3.30;;;25.00;99.90;;;;;;5026540;28;20141;-74
2023/07/12 08:24:47;;;;;;;5.75;3.47;;;25.00;99.90;;;;;;5026200;28;20551;-74
2023/07/12 08:27:16;;;;;;;8.07;3.72;;;25.10;99.90;;;;;;5027613;28;20105;-74
2023/07/12 08:29:41;;;;;;;5.43;3.40;;;25.20;99.90;;;;;;5028245;28;20017;-75
2023/07/12 08:32:08;;;;;;;4.15;2.72;;;25.30;99.90;;;;;;5027599;28;20079;-74
2023/07/12 08:34:33;;;;;;;7.95;3.22;;;25.30;99.90;;;;;;5028693;28;20045;-74
2023/07/12 08:36:59;;;;;;;6.65;3.05;;;25.40;99.90;;;;;;5025206;28;20060;-74
2023/07/12 08:39:24;;;;;;;7.82;3.10;;;25.50;99.90;;;;;;5023201;28;20107;-76
2023/07/12 08:41:54;;;;;;;6.65;3.75;;;25.60;99.90;;;;;;5024628;28;20048;-75
2023/07/12 08:44:20;;;;;;;5.85;3.03;;;25.60;99.90;;;;;;5023108;28;20040;-75
2023/07/12 08:46:55;;;;;;;4.78;3.30;;;25.70;99.90;;;;;;5027382;28;20124;-75
2023/07/12 08:49:23;;;;;;;4.55;3.20;;;25.80;99.90;;;;;;5024575;28;20026;-74
2023/07/12 08:51:49;;;;;;;7.35;2.83;;;25.90;99.90;;;;;;5029756;28;20025;-74
2023/07/12 08:54:22;;;;;;;6.03;3.03;;;25.90;99.90;;;;;;5022247;28;22502;-75
2023/07/12 08:57:08;;;;;;;7.97;3.63;;;26.00;99.90;;;;;;5026975;28;20029;-75
2023/07/12 08:59:35;;;;;;;6.38;3.40;;;26.10;99.90;;;;;;5021061;28;20543;-74
2023/07/12 09:02:03;;;;;;;7.10;3.40;;;26.10;99.90;;;;;;5028495;28;20086;-74
2023/07/12 09:04:33;;;;;;;11.20;3.95;;;26.10;99.90;;;;;;5026862;28;20029;-74
2023/07/12 09:07:07;;;;;;;7.03;3.60;;;26.10;99.90;;;;;;5024267;28;20037;-74
2023/07/12 09:09:38;;;;;;;5.53;3.58;;;26.10;99.90;;;;;;5026939;28;20549;-74
2023/07/12 09:12:07;;;;;;;7.60;3.63;;;26.10;99.90;;;;;;5035849;28;20040;-74
2023/07/12 09:14:36;;;;;;;6.45;4.13;;;26.10;99.90;;;;;;5026895;28;20113;-74
2023/07/12 09:17:02;;;;;;;6.65;4.10;;;26.10;99.90;;;;;;5028071;28;20017;-74
2023/07/12 09:19:36;;;;;;;11.55;3.40;;;26.10;99.90;;;;;;5030006;28;20033;-73
2023/07/12 09:22:13;;;;;;;5.78;4.03;;;26.00;99.90;;;;;;5024897;28;20100;-74
2023/07/12 09:24:44;;;;;;;3.85;3.30;;;26.10;99.90;;;;;;5023132;28;20736;-74
2023/07/12 09:27:26;;;;;;;6.95;3.80;;;26.20;99.90;;;;;;5020980;28;20488;-73
2023/07/12 09:30:04;;;;;;;9.60;3.75;;;26.30;99.90;;;;;;5024567;28;20029;-73
2023/07/12 09:32:31;;;;;;;6.55;3.42;;;26.30;99.10;;;;;;5022167;28;20101;-73
2023/07/12 09:34:58;;;;;;;6.60;3.42;;;26.40;99.40;;;;;;5019918;28;20022;-73
2023/07/12 09:37:23;;;;;;;5.97;3.92;;;26.40;99.30;;;;;;5025078;28;20514;-74
2023/07/12 09:39:56;;;;;;;5.72;3.10;;;26.50;99.40;;;;;;5021566;28;20025;-74
2023/07/12 09:42:22;;;;;;;9.03;3.90;;;26.60;99.40;;;;;;5027268;28;20021;-74
2023/07/12 09:44:48;;;;;;;5.90;3.17;;;26.70;99.00;;;;;;5023311;28;20031;-74
2023/07/12 09:47:17;;;;;;;8.98;4.28;;;26.80;99.00;;;;;;5022987;28;20022;-73
2023/07/12 09:49:54;;;;;;;6.75;3.75;;;26.80;98.50;;;;;;5025000;28;20484;-73
2023/07/12 09:52:31;;;;;;;6.55;3.65;;;26.80;98.60;;;;;;5023576;28;20523;-74
2023/07/12 09:55:09;;;;;;;7.60;4.28;;;26.90;98.50;;;;;;5024687;28;20022;-74
2023/07/12 09:57:59;;;;;;;5.95;4.38;;;26.90;98.70;;;;;;5020599;28;20022;-74
2023/07/12 10:00:31;;;;;;;3.72;3.17;;;26.90;98.90;;;;;;5020370;28;20464;-74
2023/07/12 10:03:20;;;;;;;7.63;3.17;;;27.00;98.20;;;;;;5024515;28;20928;-73
2023/07/12 10:05:53;;;;;;;4.70;3.05;;;26.90;97.50;;;;;;5022639;28;20025;-74
2023/07/12 10:08:19;;;;;;;4.18;2.78;;;26.90;97.20;;;;;;5019883;28;20030;-74
2023/07/12 10:11:15;;;;;;;6.40;3.55;;;26.80;97.50;;;;;;5022592;28;20628;-73
2023/07/12 10:13:56;;;;;;;6.53;3.58;;;26.80;97.10;;;;;;5021313;28;20168;-74
2023/07/12 10:16:26;;;;;;;5.60;3.22;;;26.80;97.00;;;;;;5020159;28;20036;-74
2023/07/12 10:18:53;;;;;;;4.78;2.97;;;26.80;96.40;;;;;;5021291;28;20888;-73
2023/07/12 10:21:22;;;;;;;5.95;2.80;;;26.80;95.80;;;;;;5027963;28;20105;-74
2023/07/12 10:23:56;;;;;;;5.10;2.80;;;26.80;95.60;;;;;;5025413;28;20488;-74
2023/07/12 10:26:22;;;;;;;6.40;2.78;;;26.90;96.00;;;;;;5022598;28;21381;-75
2023/07/12 10:28:51;;;;;;;5.70;3.40;;;27.00;95.70;;;;;;5022977;28;20029;-74
2023/07/12 10:31:31;;;;;;;4.68;2.90;;;27.10;95.60;;;;;;5025119;28;20546;-74
2023/07/12 10:34:08;;;;;;;6.93;3.15;;;27.10;95.40;;;;;;5020952;28;20025;-74
2023/07/12 10:36:35;;;;;;;3.55;3.00;;;27.20;95.30;;;;;;5026769;28;20046;-74
2023/07/12 10:39:01;;;;;;;3.83;2.65;;;27.20;95.30;;;;;;5025566;28;20024;-74
2023/07/12 10:41:38;;;;;;;9.02;3.00;;;27.20;94.70;;;;;;5021044;28;20395;-74
2023/07/12 10:44:08;;;;;;;6.43;2.97;;;27.30;94.40;;;;;;5015555;28;20124;-74
2023/07/12 10:46:38;;;;;;;5.68;3.15;;;27.30;94.20;;;;;;5022547;28;20025;-74
2023/07/12 10:49:14;;;;;;;6.78;3.20;;;27.30;94.30;;;;;;5021951;28;20467;-76
2023/07/12 10:51:42;;;;;;;4.82;3.25;;;27.40;94.20;;;;;;5024369;28;20092;-75
2023/07/12 10:54:42;;;;;;;8.10;3.25;;;27.40;94.00;;;;;;5025014;28;20030;-74
2023/07/12 10:57:20;;;;;;;5.18;3.00;;;27.50;93.80;;;;;;4969308;28;20045;-75
2023/07/12 10:59:46;;;;;;;7.22;3.63;;;27.40;93.60;;;;;;5020960;28;21218;-75
2023/07/12 11:02:27;;;;;;;5.35;3.20;;;27.40;93.90;;;;;;5019448;28;20022;-77
2023/07/12 11:04:52;;;;;;;6.82;3.40;;;27.50;93.90;;;;;;5019952;28;20125;-75
2023/07/12 11:07:18;;;;;;;5.70;3.55;;;27.50;93.50;;;;;;5021353;28;20104;-76
2023/07/12 11:09:44;;;;;;;5.55;3.40;;;27.60;93.40;;;;;;5022769;28;20068;-76
2023/07/12 11:12:25;;;;;;;8.15;3.67;;;27.60;93.30;;;;;;5022201;28;20033;-75
2023/07/12 11:14:52;;;;;;;7.43;2.97;;;27.70;93.40;;;;;;5021408;28;20050;-76
2023/07/12 11:17:26;;;;;;;5.93;3.10;;;27.70;93.60;;;;;;5024777;28;20021;-76
2023/07/12 11:20:06;;;;;;;7.88;4.28;;;27.80;93.10;;;;;;5026141;28;20032;-74
2023/07/12 11:22:51;;;;;;;8.32;3.92;;;27.90;92.90;;;;;;5023466;28;20024;-75
2023/07/12 11:25:51;;;;;;;5.35;2.95;;;28.00;93.00;;;;;;5023021;28;20101;-75
2023/07/12 11:28:25;;;;;;;7.60;3.80;;;28.00;92.70;;;;;;5021912;28;20025;-75
2023/07/12 11:31:23;;;;;;;5.95;3.75;;;28.00;92.10;;;;;;5021206;28;20022;-75
2023/07/12 11:34:13;;;;;;;6.90;3.80;;;27.90;91.90;;;;;;5026376;28;20113;-75
2023/07/12 11:36:40;;;;;;;11.30;4.03;;;27.90;92.00;;;;;;5016959;28;20029;-74
2023/07/12 11:39:18;;;;;;;9.98;3.92;;;27.80;92.10;;;;;;5025308;28;20029;-74
2023/07/12 11:41:57;;;;;;;8.85;4.35;;;27.80;92.10;;;;;;5022023;28;20033;-74
2023/07/12 11:44:25;;;;;;;7.07;3.55;;;27.80;92.20;;;;;;5020030;28;20075;-74
2023/07/12 11:46:51;;;;;;;4.93;3.35;;;27.80;91.90;;;;;;5024600;28;20031;-74
2023/07/12 11:49:20;;;;;;;4.82;3.53;;;27.80;91.80;;;;;;5024417;28;20025;-74
2023/07/12 11:51:49;;;;;;;11.15;4.28;;;27.80;91.80;;;;;;5021868;28;20065;-74
2023/07/12 11:54:22;;;;;;;8.57;4.03;;;27.90;91.90;;;;;;5021515;28;20380;-75
2023/07/12 11:56:50;;;;;;;8.75;4.28;;;28.00;91.80;;;;;;5018234;28;20037;-75
2023/07/12 11:59:19;;;;;;;7.43;3.45;;;28.10;91.60;;;;;;5024772;28;20124;-74
2023/07/12 12:01:47;;;;;;;5.95;3.63;;;28.10;91.30;;;;;;5026751;28;20025;-76
2023/07/12 12:04:30;;;;;;;7.43;4.15;;;28.20;91.20;;;;;;5025227;28;20030;-76
2023/07/12 12:07:16;;;;;;;7.15;4.55;;;28.20;91.20;;;;;;5023483;28;20036;-76
2023/07/12 12:09:43;;;;;;;8.00;4.40;;;28.20;91.00;;;;;;4991578;28;20041;-76
2023/07/12 12:12:08;;;;;;;9.82;4.35;;;28.20;90.70;;;;;;5006713;28;20041;-76
2023/07/12 12:14:40;;;;;;;6.50;3.75;;;28.30;90.80;;;;;;5000545;28;20481;-75
2023/07/12 12:17:13;;;;;;;6.78;3.55;;;28.30;91.00;;;;;;5000246;28;20037;-75
2023/07/12 12:19:39;;;;;;;;;;;28.40;90.60;;;;;;5003816;28;20607;-75
2023/07/12 12:22:14;;;;;;;7.80;4.78;;;28.40;89.70;;;;;;5001535;28;19996;-75
2023/07/12 12:24:47;;;;;;;8.38;4.63;;;28.40;89.20;;;;;;4996302;28;20029;-75
2023/07/12 12:27:21;;;;;;;9.30;5.25;;;28.50;88.70;;;;;;5000512;28;20030;-75
2023/07/12 12:29:49;;;;;;;8.63;4.80;;;28.50;87.70;;;;;;5000556;28;20037;-75
2023/07/12 12:32:16;;;;;;;10.27;4.90;;;28.70;87.60;;;;;;5000887;28;20030;-76
2023/07/12 12:34:53;;;;;;;8.75;4.28;;;28.70;87.30;;;;;;5001367;28;20029;-77
2023/07/12 12:37:27;;;;;;;6.68;4.13;;;28.70;88.00;;;;;;4998448;28;20504;-76
2023/07/12 12:40:06;;;;;;;5.60;4.18;;;28.80;87.80;;;;;;5002015;28;20666;-76
2023/07/12 12:42:32;;;;;;;6.85;3.50;;;28.90;87.40;;;;;;4995633;28;20538;-75
2023/07/12 12:44:58;;;;;;;8.63;4.07;;;28.90;87.30;;;;;;5002129;28;20026;-76
2023/07/12 12:47:30;;;;;;;7.63;4.63;;;28.90;87.30;;;;;;5002527;28;20014;-76
2023/07/12 12:49:59;;;;;;;8.50;4.57;;;28.90;87.40;;;;;;5002929;28;20108;-76
2023/07/12 12:52:32;;;;;;;9.05;4.20;;;29.00;87.30;;;;;;5002613;28;20018;-76
2023/07/12 12:55:03;;;;;;;6.07;3.80;;;29.00;86.80;;;;;;5001514;28;20105;-75
2023/07/12 12:57:31;;;;;;;8.25;4.28;;;28.90;85.60;;;;;;5020594;23;20049;-74